createdAt,value
2023-04-18T00:00:31.796Z,60.21
2023-04-18T00:01:31.775Z,59.71
2023-04-18T00:02:31.872Z,61.61
2023-04-18T00:03:31.977Z,58.96
2023-04-18T00:04:31.854Z,60.06
2023-04-18T00:05:31.746Z,60.62
2023-04-18T00:06:31.750Z,60.05
2023-04-18T00:07:31.728Z,58.33
2023-04-18T00:08:31.759Z,59.74
2023-04-18T00:09:31.788Z,61.88
2023-04-18T00:10:31.766Z,60.81
2023-04-18T00:11:31.715Z,60.24
2023-04-18T00:12:31.739Z,60.50
2023-04-18T00:13:31.712Z,62.67
2023-04-18T00:14:31.737Z,58.70
2023-04-18T00:15:31.690Z,59.22
2023-04-18T00:16:31.709Z,61.22
2023-04-18T00:17:31.706Z,57.37
2023-04-18T00:18:31.715Z,62.89
2023-04-18T00:19:31.677Z,62.79
2023-04-18T00:20:31.691Z,60.06
2023-04-18T00:21:31.675Z,59.49
2023-04-18T00:22:31.662Z,60.28
2023-04-18T00:23:31.625Z,59.14
2023-04-18T00:24:31.658Z,57.99
2023-04-18T00:25:31.618Z,59.38
2023-04-18T00:26:31.634Z,58.52
2023-04-18T00:27:31.606Z,57.25
2023-04-18T00:28:31.635Z,58.22
2023-04-18T00:29:31.681Z,58.58
2023-04-18T00:30:31.625Z,61.83
2023-04-18T00:31:31.689Z,61.47
2023-04-18T00:32:31.618Z,61.93
2023-04-18T00:33:31.590Z,59.32
2023-04-18T00:34:31.625Z,61.96
2023-04-18T00:35:31.560Z,63.29
2023-04-18T00:36:31.578Z,62.67
2023-04-18T00:37:31.562Z,62.37
2023-04-18T00:38:31.562Z,61.37
2023-04-18T00:39:31.568Z,61.22
2023-04-18T00:40:31.553Z,60.02
2023-04-18T00:41:31.542Z,61.76
2023-04-18T00:42:31.561Z,61.61
2023-04-18T00:43:31.545Z,59.95
2023-04-18T00:44:31.528Z,60.94
2023-04-18T00:45:31.507Z,61.84
2023-04-18T00:46:31.569Z,59.31
2023-04-18T00:47:31.550Z,60.00
2023-04-18T00:48:31.537Z,60.99
2023-04-18T00:49:31.499Z,59.48
2023-04-18T00:50:31.516Z,57.03
2023-04-18T00:51:31.478Z,58.95
2023-04-18T00:52:31.483Z,57.04
2023-04-18T00:53:31.477Z,57.36
2023-04-18T00:54:31.474Z,57.81
2023-04-18T00:55:31.478Z,61.36
2023-04-18T00:56:31.480Z,60.80
2023-04-18T00:57:31.434Z,61.89
2023-04-18T00:58:31.452Z,59.39
2023-04-18T00:59:31.456Z,54.82
2023-04-18T01:00:31.447Z,59.27
2023-04-18T01:01:31.441Z,59.51
2023-04-18T01:02:31.561Z,59.87
2023-04-18T01:03:31.576Z,59.62
2023-04-18T01:04:31.543Z,63.55
2023-04-18T01:05:31.428Z,63.27
2023-04-18T01:06:31.440Z,63.68
2023-04-18T01:07:31.393Z,59.94
2023-04-18T01:08:31.420Z,58.16
2023-04-18T01:09:31.407Z,56.12
2023-04-18T01:10:31.388Z,58.74
2023-04-18T01:11:31.397Z,61.92
2023-04-18T01:12:31.383Z,61.41
2023-04-18T01:13:31.544Z,56.86
2023-04-18T01:14:31.363Z,59.37
2023-04-18T01:15:31.342Z,59.80
2023-04-18T01:16:31.391Z,55.55
2023-04-18T01:17:31.350Z,57.80
2023-04-18T01:18:31.349Z,56.81
2023-04-18T01:19:31.360Z,57.01
2023-04-18T01:20:31.334Z,58.10
2023-04-18T01:21:31.346Z,60.11
2023-04-18T01:22:31.327Z,60.44
2023-04-18T01:23:31.295Z,59.48
2023-04-18T01:24:31.318Z,60.08
2023-04-18T01:25:31.312Z,61.60
2023-04-18T01:26:31.306Z,58.96
2023-04-18T01:27:31.277Z,59.56
2023-04-18T01:28:31.297Z,60.00
2023-04-18T01:29:31.287Z,59.53
2023-04-18T01:30:31.292Z,56.82
2023-04-18T01:31:31.310Z,58.39
2023-04-18T01:32:31.340Z,58.98
2023-04-18T01:33:31.243Z,62.05
2023-04-18T01:34:31.262Z,63.10
2023-04-18T01:35:31.253Z,57.52
2023-04-18T01:36:31.251Z,62.67
2023-04-18T01:37:31.228Z,59.96
2023-04-18T01:38:31.259Z,61.01
2023-04-18T01:39:31.225Z,62.57
2023-04-18T01:40:31.233Z,60.67
2023-04-18T01:41:31.231Z,59.95
2023-04-18T01:42:31.219Z,61.42
2023-04-18T01:43:31.212Z,61.54
2023-04-18T01:44:31.266Z,61.83
2023-04-18T01:45:31.191Z,59.98
2023-04-18T01:46:31.301Z,63.61
2023-04-18T01:47:31.185Z,61.33
2023-04-18T01:48:31.191Z,61.60
2023-04-18T01:49:31.161Z,58.79
2023-04-18T01:50:31.206Z,63.95
2023-04-18T01:51:31.164Z,61.82
2023-04-18T01:52:31.194Z,61.77
2023-04-18T01:53:31.137Z,58.35
2023-04-18T01:54:31.157Z,61.12
2023-04-18T01:55:31.145Z,60.40
2023-04-18T01:56:31.145Z,60.57
2023-04-18T01:57:31.121Z,60.21
2023-04-18T01:58:31.152Z,63.17
2023-04-18T01:59:31.117Z,62.34
2023-04-18T02:00:31.200Z,58.91
2023-04-18T02:01:31.094Z,57.09
2023-04-18T02:02:31.216Z,59.68
2023-04-18T02:03:31.193Z,61.36
2023-04-18T02:04:31.129Z,59.11
2023-04-18T02:05:31.089Z,60.54
2023-04-18T02:06:31.104Z,60.32
2023-04-18T02:07:31.081Z,60.85
2023-04-18T02:08:31.080Z,61.48
2023-04-18T02:09:31.048Z,59.53
2023-04-18T02:10:31.075Z,63.30
2023-04-18T02:11:31.116Z,60.79
2023-04-18T02:12:31.078Z,62.24
2023-04-18T02:13:31.065Z,60.66
2023-04-18T02:14:31.054Z,60.09
2023-04-18T02:15:31.027Z,60.44
2023-04-18T02:16:31.109Z,62.23
2023-04-18T02:17:31.053Z,61.58
2023-04-18T02:18:31.033Z,61.57
2023-04-18T02:19:31.021Z,57.61
2023-04-18T02:20:31.018Z,59.77
2023-04-18T02:21:31.011Z,62.80
2023-04-18T02:22:31.059Z,63.08
2023-04-18T02:23:30.994Z,59.41
2023-04-18T02:24:30.997Z,61.48
2023-04-18T02:25:30.983Z,63.26
2023-04-18T02:26:30.992Z,62.46
2023-04-18T02:27:30.978Z,60.55
2023-04-18T02:28:31.004Z,61.38
2023-04-18T02:29:30.967Z,60.59
2023-04-18T02:30:30.974Z,57.74
2023-04-18T02:31:30.961Z,63.39
2023-04-18T02:32:31.039Z,62.17
2023-04-18T02:33:30.966Z,61.57
2023-04-18T02:34:30.947Z,61.20
2023-04-18T02:35:30.922Z,60.52
2023-04-18T02:36:30.960Z,60.62
2023-04-18T02:37:30.912Z,65.93
2023-04-18T02:38:30.939Z,63.22
2023-04-18T02:39:30.919Z,63.89
2023-04-18T02:40:30.932Z,61.17
2023-04-18T02:41:30.894Z,64.10
2023-04-18T02:42:30.924Z,63.16
2023-04-18T02:43:30.903Z,60.55
2023-04-18T02:44:30.898Z,59.45
2023-04-18T02:45:30.911Z,61.60
2023-04-18T02:46:30.971Z,62.49
2023-04-18T02:47:37.555Z,64.52
2023-04-18T02:48:31.952Z,61.02
2023-04-18T02:49:30.854Z,63.04
2023-04-18T02:50:30.881Z,66.59
2023-04-18T02:51:30.841Z,62.64
2023-04-18T02:52:30.881Z,61.36
2023-04-18T02:53:30.837Z,61.01
2023-04-18T02:54:30.840Z,63.60
2023-04-18T02:55:30.811Z,61.76
2023-04-18T02:56:30.833Z,64.01
2023-04-18T02:57:30.824Z,66.02
2023-04-18T02:58:30.851Z,65.02
2023-04-18T02:59:30.789Z,63.78
2023-04-18T03:00:30.805Z,64.47
2023-04-18T03:01:30.841Z,63.17
2023-04-18T03:02:30.882Z,62.25
2023-04-18T03:03:30.821Z,63.54
2023-04-18T03:04:30.848Z,63.45
2023-04-18T03:05:30.765Z,64.89
2023-04-18T03:06:30.766Z,63.00
2023-04-18T03:07:30.784Z,64.43
2023-04-18T03:08:30.767Z,64.80
2023-04-18T03:09:30.774Z,62.42
2023-04-18T03:10:30.768Z,62.14
2023-04-18T03:11:30.727Z,61.50
2023-04-18T03:12:30.746Z,64.80
2023-04-18T03:13:30.722Z,61.92
2023-04-18T03:14:30.732Z,63.74
2023-04-18T03:15:30.722Z,64.42
2023-04-18T03:16:30.749Z,63.89
2023-04-18T03:17:30.726Z,63.02
2023-04-18T03:18:30.697Z,62.09
2023-04-18T03:19:30.687Z,61.81
2023-04-18T03:20:30.686Z,63.27
2023-04-18T03:21:30.669Z,64.26
2023-04-18T03:22:30.713Z,63.52
2023-04-18T03:23:30.696Z,65.27
2023-04-18T03:24:30.689Z,64.05
2023-04-18T03:25:30.649Z,65.67
2023-04-18T03:26:30.672Z,63.39
2023-04-18T03:27:30.643Z,62.49
2023-04-18T03:28:30.642Z,60.15
2023-04-18T03:29:30.638Z,63.18
2023-04-18T03:30:30.644Z,63.97
2023-04-18T03:31:30.637Z,64.82
2023-04-18T03:32:30.688Z,63.17
2023-04-18T03:33:30.614Z,60.70
2023-04-18T03:34:30.628Z,63.21
2023-04-18T03:35:30.597Z,64.55
2023-04-18T03:36:30.599Z,65.41
2023-04-18T03:37:30.602Z,63.98
2023-04-18T03:38:30.603Z,63.92
2023-04-18T03:39:30.581Z,65.50
2023-04-18T03:40:30.573Z,65.45
2023-04-18T03:41:30.607Z,64.98
2023-04-18T03:42:30.581Z,66.04
2023-04-18T03:43:30.540Z,65.25
2023-04-18T03:44:30.555Z,64.77
2023-04-18T03:45:30.552Z,65.13
2023-04-18T03:46:30.602Z,65.42
2023-04-18T03:47:30.573Z,64.85
2023-04-18T03:48:30.555Z,63.19
2023-04-18T03:49:30.525Z,65.83
2023-04-18T03:50:30.548Z,66.53
2023-04-18T03:51:30.499Z,64.52
2023-04-18T03:52:30.509Z,64.59
2023-04-18T03:53:30.510Z,64.44
2023-04-18T03:54:30.523Z,64.61
2023-04-18T03:55:30.490Z,64.64
2023-04-18T03:56:30.490Z,65.33
2023-04-18T03:57:30.462Z,65.68
2023-04-18T03:58:30.475Z,65.48
2023-04-18T03:59:30.452Z,66.28
2023-04-18T04:00:30.491Z,65.98
2023-04-18T04:01:30.470Z,66.86
2023-04-18T04:02:30.521Z,67.31
2023-04-18T04:03:30.512Z,65.10
2023-04-18T04:04:30.465Z,65.37
2023-04-18T04:05:30.448Z,67.30
2023-04-18T04:06:30.416Z,67.62
2023-04-18T04:07:30.403Z,67.00
2023-04-18T04:08:30.409Z,67.20
2023-04-18T04:09:30.412Z,65.30
2023-04-18T04:10:30.406Z,64.89
2023-04-18T04:11:30.378Z,66.34
2023-04-18T04:12:30.421Z,66.71
2023-04-18T04:13:30.386Z,65.81
2023-04-18T04:14:30.391Z,66.74
2023-04-18T04:15:30.384Z,65.71
2023-04-18T04:16:30.396Z,66.93
2023-04-18T04:17:30.405Z,64.22
2023-04-18T04:18:30.368Z,65.55
2023-04-18T04:19:30.343Z,67.68
2023-04-18T04:20:30.361Z,66.47
2023-04-18T04:21:30.340Z,65.78
2023-04-18T04:22:30.331Z,66.13
2023-04-18T04:23:30.309Z,66.82
2023-04-18T04:24:30.319Z,64.49
2023-04-18T04:25:30.318Z,64.67
2023-04-18T04:26:30.319Z,65.74
2023-04-18T04:27:30.284Z,66.57
2023-04-18T04:28:30.322Z,66.64
2023-04-18T04:29:30.266Z,67.71
2023-04-18T04:30:30.288Z,66.20
2023-04-18T04:31:30.301Z,64.36
2023-04-18T04:32:30.286Z,67.31
2023-04-18T04:33:30.268Z,66.26
2023-04-18T04:34:30.444Z,68.66
2023-04-18T04:35:30.301Z,65.85
2023-04-18T04:36:30.237Z,65.80
2023-04-18T04:37:30.238Z,66.13
2023-04-18T04:38:30.251Z,67.05
2023-04-18T04:39:30.231Z,65.74
2023-04-18T04:40:30.257Z,66.50
2023-04-18T04:41:30.331Z,66.08
2023-04-18T04:42:30.228Z,65.26
2023-04-18T04:43:30.198Z,65.35
2023-04-18T04:44:30.269Z,66.52
2023-04-18T04:45:30.264Z,65.46
2023-04-18T04:46:30.210Z,65.11
2023-04-18T04:47:30.210Z,65.07
2023-04-18T04:48:30.183Z,64.86
2023-04-18T04:49:30.191Z,66.48
2023-04-18T04:50:30.196Z,66.18
2023-04-18T04:51:30.149Z,67.66
2023-04-18T04:52:30.157Z,65.33
2023-04-18T04:53:30.184Z,65.76
2023-04-18T04:54:30.174Z,67.34
2023-04-18T04:55:30.152Z,65.90
2023-04-18T04:56:30.174Z,66.38
2023-04-18T04:57:30.116Z,66.89
2023-04-18T04:58:30.127Z,65.45
2023-04-18T04:59:30.115Z,64.68
2023-04-18T05:00:30.128Z,65.28
2023-04-18T05:01:30.239Z,64.37
2023-04-18T05:02:30.239Z,66.15
2023-04-18T05:03:30.226Z,67.58
2023-04-18T05:04:30.198Z,67.36
2023-04-18T05:05:30.101Z,66.89
2023-04-18T05:06:30.113Z,66.12
2023-04-18T05:07:30.073Z,65.61
2023-04-18T05:08:30.107Z,65.42
2023-04-18T05:09:30.073Z,65.21
2023-04-18T05:10:30.078Z,65.73
2023-04-18T05:11:30.065Z,65.60
2023-04-18T05:12:30.053Z,66.05
2023-04-18T05:13:30.031Z,65.81
2023-04-18T05:14:30.036Z,66.73
2023-04-18T05:15:30.052Z,67.61
2023-04-18T05:16:30.102Z,66.85
2023-04-18T05:17:30.106Z,66.26
2023-04-18T05:18:30.038Z,66.44
2023-04-18T05:19:30.029Z,65.79
2023-04-18T05:20:30.009Z,65.67
2023-04-18T05:21:29.985Z,65.69
2023-04-18T05:22:29.998Z,66.64
2023-04-18T05:23:29.982Z,66.93
2023-04-18T05:24:29.986Z,66.69
2023-04-18T05:25:30.096Z,67.74
2023-04-18T05:26:29.973Z,67.30
2023-04-18T05:27:29.947Z,65.25
2023-04-18T05:28:29.973Z,66.36
2023-04-18T05:29:29.976Z,64.52
2023-04-18T05:30:29.968Z,64.45
2023-04-18T05:31:30.025Z,67.31
2023-04-18T05:32:29.968Z,66.64
2023-04-18T05:33:29.945Z,64.12
2023-04-18T05:34:29.932Z,65.49
2023-04-18T05:35:29.933Z,66.57
2023-04-18T05:36:29.942Z,66.72
2023-04-18T05:37:29.930Z,66.52
2023-04-18T05:38:29.918Z,66.27
2023-04-18T05:39:29.904Z,66.68
2023-04-18T05:40:29.915Z,65.62
2023-04-18T05:41:29.886Z,67.33
2023-04-18T05:42:29.895Z,66.22
2023-04-18T05:43:29.905Z,67.16
2023-04-18T05:44:29.891Z,67.15
2023-04-18T05:45:29.875Z,66.84
2023-04-18T05:46:29.949Z,65.36
2023-04-18T05:47:30.349Z,65.71
2023-04-18T05:48:29.865Z,66.86
2023-04-18T05:49:29.854Z,65.35
2023-04-18T05:50:29.845Z,66.64
2023-04-18T05:51:29.837Z,65.45
2023-04-18T05:52:29.857Z,67.20
2023-04-18T05:53:29.879Z,66.49
2023-04-18T05:54:29.848Z,68.57
2023-04-18T05:55:29.825Z,65.24
2023-04-18T05:56:29.815Z,65.64
2023-04-18T05:57:29.807Z,66.16
2023-04-18T05:58:36.858Z,65.35
2023-04-18T05:59:29.784Z,66.55
2023-04-18T06:00:29.810Z,67.67
2023-04-18T06:01:29.784Z,67.22
2023-04-18T06:02:29.829Z,66.87
2023-04-18T06:03:30.145Z,64.82
2023-04-18T06:04:29.880Z,65.66
2023-04-18T06:05:30.044Z,65.99
2023-04-18T06:06:29.799Z,66.10
2023-04-18T06:07:29.728Z,66.35
2023-04-18T06:08:29.759Z,66.49
2023-04-18T06:09:29.749Z,64.89
2023-04-18T06:10:29.729Z,66.27
2023-04-18T06:11:29.710Z,66.06
2023-04-18T06:12:29.716Z,65.82
2023-04-18T06:13:29.695Z,65.09
2023-04-18T06:14:29.732Z,64.77
2023-04-18T06:15:29.690Z,65.45
2023-04-18T06:16:29.757Z,64.93
2023-04-18T06:17:29.730Z,68.43
2023-04-18T06:18:29.733Z,67.05
2023-04-18T06:19:29.675Z,67.43
2023-04-18T06:20:29.710Z,66.65
2023-04-18T06:21:29.660Z,64.96
2023-04-18T06:22:29.676Z,66.48
2023-04-18T06:23:29.643Z,66.04
2023-04-18T06:24:31.158Z,66.46
2023-04-18T06:25:29.662Z,65.57
2023-04-18T06:26:29.674Z,66.56
2023-04-18T06:27:31.902Z,67.79
2023-04-18T06:28:29.641Z,66.62
2023-04-18T06:29:29.638Z,64.96
2023-04-18T06:30:29.651Z,65.29
2023-04-18T06:31:29.621Z,64.51
2023-04-18T06:32:29.663Z,64.95
2023-04-18T06:33:29.609Z,64.83
2023-04-18T06:34:29.600Z,67.01
2023-04-18T06:35:29.646Z,67.62
2023-04-18T06:36:29.612Z,65.22
2023-04-18T06:37:29.611Z,65.89
2023-04-18T06:38:29.609Z,66.33
2023-04-18T06:39:29.568Z,66.36
2023-04-18T06:40:29.616Z,65.84
2023-04-18T06:41:29.560Z,66.46
2023-04-18T06:42:29.584Z,66.47
2023-04-18T06:43:29.547Z,66.19
2023-04-18T06:44:29.600Z,67.67
2023-04-18T06:45:29.569Z,65.49
2023-04-18T06:46:29.692Z,64.49
2023-04-18T06:47:29.557Z,65.52
2023-04-18T06:48:29.536Z,66.81
2023-04-18T06:49:29.550Z,67.48
2023-04-18T06:50:29.570Z,66.16
2023-04-18T06:51:29.539Z,66.81
2023-04-18T06:52:29.514Z,65.76
2023-04-18T06:53:29.489Z,66.32
2023-04-18T06:54:29.520Z,66.07
2023-04-18T06:55:29.472Z,66.37
2023-04-18T06:56:29.517Z,65.32
2023-04-18T06:57:29.480Z,66.05
2023-04-18T06:58:29.488Z,67.43
2023-04-18T06:59:29.458Z,65.02
2023-04-18T07:00:29.573Z,64.74
2023-04-18T07:01:29.482Z,66.59
2023-04-18T07:02:29.537Z,65.76
2023-04-18T07:03:29.633Z,66.06
2023-04-18T07:04:29.556Z,67.46
2023-04-18T07:05:29.705Z,65.48
2023-04-18T07:06:29.443Z,65.01
2023-04-18T07:07:29.411Z,65.81
2023-04-18T07:08:29.464Z,66.35
2023-04-18T07:09:29.431Z,65.85
2023-04-18T07:10:29.429Z,64.17
2023-04-18T07:11:29.387Z,66.44
2023-04-18T07:12:29.397Z,65.08
2023-04-18T07:13:29.381Z,65.71
2023-04-18T07:14:29.395Z,67.08
2023-04-18T07:15:29.389Z,66.95
2023-04-18T07:16:29.462Z,66.46
2023-04-18T07:17:29.420Z,65.18
2023-04-18T07:18:37.511Z,66.38
2023-04-18T07:19:30.340Z,65.57
2023-04-18T07:20:29.510Z,65.65
2023-04-18T07:21:29.384Z,66.72
2023-04-18T07:22:29.329Z,64.82
2023-04-18T07:23:29.316Z,65.79
2023-04-18T07:24:29.335Z,67.44
2023-04-18T07:25:29.322Z,66.12
2023-04-18T07:26:29.307Z,66.29
2023-04-18T07:27:29.310Z,64.67
2023-04-18T07:28:29.302Z,65.93
2023-04-18T07:29:29.274Z,65.94
2023-04-18T07:30:29.307Z,66.60
2023-04-18T07:31:29.342Z,66.37
2023-04-18T07:32:29.349Z,65.21
2023-04-18T07:33:29.272Z,66.54
2023-04-18T07:34:29.262Z,65.72
2023-04-18T07:35:29.242Z,65.92
2023-04-18T07:36:29.294Z,65.58
2023-04-18T07:37:29.383Z,66.43
2023-04-18T07:38:29.265Z,65.30
2023-04-18T07:39:29.247Z,64.78
2023-04-18T07:40:29.248Z,65.49
2023-04-18T07:41:29.233Z,65.90
2023-04-18T07:42:29.248Z,65.48
2023-04-18T07:43:29.273Z,65.06
2023-04-18T07:44:29.216Z,67.51
2023-04-18T07:45:29.180Z,67.87
2023-04-18T07:46:29.210Z,66.72
2023-04-18T07:47:30.162Z,66.41
2023-04-18T07:48:29.217Z,67.31
2023-04-18T07:49:29.221Z,66.50
2023-04-18T07:50:29.186Z,66.19
2023-04-18T07:51:29.182Z,68.18
2023-04-18T07:52:29.185Z,66.26
2023-04-18T07:53:29.157Z,65.33
2023-04-18T07:54:29.174Z,64.89
2023-04-18T07:55:29.143Z,66.31
2023-04-18T07:56:29.160Z,66.70
2023-04-18T07:57:29.123Z,68.10
2023-04-18T07:58:29.140Z,65.91
2023-04-18T07:59:29.109Z,67.30
2023-04-18T08:00:29.190Z,66.50
2023-04-18T08:01:29.155Z,66.96
2023-04-18T08:02:29.309Z,64.03
2023-04-18T08:03:29.250Z,66.66
2023-04-18T08:04:30.453Z,65.91
2023-04-18T08:05:29.135Z,65.65
2023-04-18T08:06:29.143Z,65.96
2023-04-18T08:07:29.092Z,67.24
2023-04-18T08:08:29.074Z,65.39
2023-04-18T08:09:29.085Z,64.68
2023-04-18T08:10:29.086Z,66.43
2023-04-18T08:11:29.057Z,65.99
2023-04-18T08:12:29.052Z,66.24
2023-04-18T08:13:29.046Z,66.58
2023-04-18T08:14:29.037Z,65.31
2023-04-18T08:15:29.032Z,67.32
2023-04-18T08:16:29.101Z,65.82
2023-04-18T08:17:29.037Z,64.71
2023-04-18T08:18:29.044Z,66.56
2023-04-18T08:19:29.022Z,66.85
2023-04-18T08:20:29.054Z,65.90
2023-04-18T08:21:28.986Z,67.84
2023-04-18T08:22:29.039Z,65.46
2023-04-18T08:23:29.027Z,64.44
2023-04-18T08:24:28.988Z,64.58
2023-04-18T08:25:28.981Z,65.16
2023-04-18T08:26:28.966Z,66.60
2023-04-18T08:27:28.982Z,65.90
2023-04-18T08:28:28.997Z,66.27
2023-04-18T08:29:28.970Z,66.35
2023-04-18T08:30:28.992Z,66.75
2023-04-18T08:31:28.947Z,62.88
2023-04-18T08:32:29.016Z,64.01
2023-04-18T08:33:28.904Z,65.20
2023-04-18T08:34:28.926Z,67.12
2023-04-18T08:35:28.942Z,64.98
2023-04-18T08:36:28.906Z,65.44
2023-04-18T08:37:28.901Z,66.53
2023-04-18T08:38:28.902Z,67.05
2023-04-18T08:39:28.870Z,66.12
2023-04-18T08:40:28.899Z,67.21
2023-04-18T08:41:28.965Z,66.78
2023-04-18T08:42:28.875Z,67.32
2023-04-18T08:43:28.842Z,65.49
2023-04-18T08:44:28.845Z,67.04
2023-04-18T08:45:28.916Z,66.74
2023-04-18T08:46:28.983Z,66.76
2023-04-18T08:47:28.829Z,66.50
2023-04-18T08:48:28.875Z,68.29
2023-04-18T08:49:28.834Z,66.02
2023-04-18T08:50:28.820Z,64.78
2023-04-18T08:51:28.795Z,67.84
2023-04-18T08:52:28.822Z,68.35
2023-04-18T08:53:28.803Z,66.93
2023-04-18T08:54:28.790Z,65.45
2023-04-18T08:55:28.786Z,66.88
2023-04-18T08:56:28.803Z,66.40
2023-04-18T08:57:28.989Z,66.59
2023-04-18T08:58:28.852Z,64.86
2023-04-18T08:59:28.753Z,66.72
2023-04-18T09:00:28.769Z,66.50
2023-04-18T09:01:28.800Z,65.07
2023-04-18T09:02:28.808Z,67.50
2023-04-18T09:03:28.810Z,67.20
2023-04-18T09:04:28.935Z,68.54
2023-04-18T09:05:28.715Z,66.25
2023-04-18T09:06:28.757Z,66.72
2023-04-18T09:07:28.724Z,67.85
2023-04-18T09:08:28.713Z,66.60
2023-04-18T09:09:28.702Z,66.83
2023-04-18T09:10:28.753Z,65.95
2023-04-18T09:11:28.818Z,68.49
2023-04-18T09:12:28.697Z,66.96
2023-04-18T09:13:28.908Z,67.55
2023-04-18T09:14:28.727Z,67.11
2023-04-18T09:15:28.665Z,67.45
2023-04-18T09:16:28.690Z,67.15
2023-04-18T09:17:28.676Z,65.16
2023-04-18T09:18:28.677Z,65.93
2023-04-18T09:19:28.628Z,67.36
2023-04-18T09:20:28.644Z,66.41
2023-04-18T09:21:28.637Z,67.10
2023-04-18T09:22:28.617Z,68.31
2023-04-18T09:23:28.636Z,67.82
2023-04-18T09:24:28.638Z,67.54
2023-04-18T09:25:28.657Z,67.10
2023-04-18T09:26:28.609Z,65.32
2023-04-18T09:27:28.601Z,71.10
2023-04-18T09:28:28.604Z,66.86
2023-04-18T09:29:28.852Z,67.96
2023-04-18T09:30:28.588Z,65.40
2023-04-18T09:31:28.627Z,66.71
2023-04-18T09:32:28.574Z,64.36
2023-04-18T09:33:28.593Z,65.38
2023-04-18T09:34:28.577Z,66.37
2023-04-18T09:35:28.532Z,66.75
2023-04-18T09:36:28.634Z,65.80
2023-04-18T09:37:28.507Z,68.65
2023-04-18T09:38:28.529Z,67.95
2023-04-18T09:39:28.565Z,64.99
2023-04-18T09:40:28.513Z,65.80
2023-04-18T09:41:28.502Z,66.66
2023-04-18T09:42:29.078Z,65.16
2023-04-18T09:43:28.489Z,66.64
2023-04-18T09:44:28.579Z,67.14
2023-04-18T09:45:28.487Z,67.45
2023-04-18T09:46:28.508Z,69.78
2023-04-18T09:47:28.523Z,65.83
2023-04-18T09:48:28.469Z,66.75
2023-04-18T09:49:28.448Z,66.23
2023-04-18T09:50:28.467Z,67.51
2023-04-18T09:51:28.451Z,65.49
2023-04-18T09:52:28.457Z,67.18
2023-04-18T09:53:28.429Z,64.95
2023-04-18T09:54:28.447Z,65.15
2023-04-18T09:55:28.432Z,64.98
2023-04-18T09:56:28.443Z,66.64
2023-04-18T09:57:28.407Z,65.27
2023-04-18T09:58:28.411Z,66.78
2023-04-18T09:59:28.411Z,66.20
2023-04-18T10:00:28.432Z,65.22
2023-04-18T10:01:28.424Z,64.29
2023-04-18T10:02:28.428Z,67.10
2023-04-18T10:03:28.421Z,66.40
2023-04-18T10:04:28.436Z,63.80
2023-04-18T10:05:28.457Z,66.90
2023-04-18T10:06:28.381Z,66.03
2023-04-18T10:07:28.336Z,63.92
2023-04-18T10:08:28.386Z,64.84
2023-04-18T10:09:28.339Z,65.08
2023-04-18T10:10:28.335Z,66.64
2023-04-18T10:11:28.305Z,65.97
2023-04-18T10:12:28.324Z,67.20
2023-04-18T10:13:28.350Z,65.99
2023-04-18T10:14:28.580Z,65.98
2023-04-18T10:15:28.273Z,66.80
2023-04-18T10:16:28.327Z,67.70
2023-04-18T10:17:29.408Z,66.56
2023-04-18T10:18:28.420Z,65.54
2023-04-18T10:19:28.269Z,65.51
2023-04-18T10:20:28.253Z,65.27
2023-04-18T10:21:28.230Z,65.18
2023-04-18T10:22:28.271Z,64.96
2023-04-18T10:23:28.275Z,65.09
2023-04-18T10:24:28.226Z,64.51
2023-04-18T10:25:28.205Z,64.07
2023-04-18T10:26:28.218Z,63.87
2023-04-18T10:27:28.208Z,66.09
2023-04-18T10:28:28.218Z,65.07
2023-04-18T10:29:28.205Z,65.07
2023-04-18T10:30:28.207Z,65.52
2023-04-18T10:31:28.479Z,65.93
2023-04-18T10:32:28.197Z,65.69
2023-04-18T10:33:31.962Z,66.49
2023-04-18T10:34:28.162Z,67.15
2023-04-18T10:35:28.181Z,66.22
2023-04-18T10:36:28.439Z,65.74
2023-04-18T10:37:28.159Z,67.41
2023-04-18T10:38:28.159Z,64.49
2023-04-18T10:39:28.173Z,64.66
2023-04-18T10:40:28.106Z,65.50
2023-04-18T10:41:28.147Z,65.34
2023-04-18T10:42:28.237Z,65.09
2023-04-18T10:43:28.090Z,65.97
2023-04-18T10:44:28.093Z,65.73
2023-04-18T10:45:28.097Z,65.38
2023-04-18T10:46:31.572Z,66.07
2023-04-18T10:47:28.154Z,64.55
2023-04-18T10:48:28.064Z,66.19
2023-04-18T10:49:30.274Z,68.99
2023-04-18T10:50:28.057Z,63.90
2023-04-18T10:51:28.025Z,64.03
2023-04-18T10:52:28.034Z,64.66
2023-04-18T10:53:28.029Z,66.46
2023-04-18T10:54:28.029Z,65.87
2023-04-18T10:55:28.024Z,65.74
2023-04-18T10:56:28.009Z,64.48
2023-04-18T10:57:28.013Z,65.30
2023-04-18T10:58:28.022Z,65.79
2023-04-18T10:59:27.967Z,65.84
2023-04-18T11:00:28.015Z,66.24
2023-04-18T11:01:30.270Z,66.12
2023-04-18T11:02:28.052Z,63.43
2023-04-18T11:03:28.035Z,65.62
2023-04-18T11:04:27.986Z,67.34
2023-04-18T11:05:28.192Z,66.44
2023-04-18T11:06:28.292Z,65.18
2023-04-18T11:07:29.936Z,65.23
2023-04-18T11:08:27.938Z,67.48
2023-04-18T11:09:27.929Z,66.70
2023-04-18T11:10:27.951Z,65.55
2023-04-18T11:11:27.908Z,65.87
2023-04-18T11:12:27.923Z,65.83
2023-04-18T11:13:27.895Z,63.28
2023-04-18T11:14:27.885Z,65.27
2023-04-18T11:15:30.884Z,65.64
2023-04-18T11:16:27.937Z,65.29
2023-04-18T11:17:27.887Z,65.52
2023-04-18T11:18:27.887Z,64.93
2023-04-18T11:19:27.837Z,66.06
2023-04-18T11:20:27.884Z,66.62
2023-04-18T11:21:30.267Z,66.83
2023-04-18T11:22:27.838Z,64.27
2023-04-18T11:23:27.810Z,66.23
2023-04-18T11:24:27.831Z,65.72
2023-04-18T11:25:27.830Z,65.86
2023-04-18T11:26:27.811Z,66.15
2023-04-18T11:27:27.805Z,66.43
2023-04-18T11:28:27.843Z,63.53
2023-04-18T11:29:27.788Z,64.75
2023-04-18T11:30:27.792Z,66.19
2023-04-18T11:31:27.809Z,62.85
2023-04-18T11:32:27.904Z,64.58
2023-04-18T11:33:27.759Z,67.02
2023-04-18T11:34:27.782Z,65.91
2023-04-18T11:35:27.761Z,65.36
2023-04-18T11:36:27.745Z,67.64
2023-04-18T11:37:27.797Z,64.28
2023-04-18T11:38:27.732Z,64.38
2023-04-18T11:39:27.710Z,67.64
2023-04-18T11:40:27.739Z,65.65
2023-04-18T11:41:27.701Z,66.40
2023-04-18T11:42:27.703Z,64.95
2023-04-18T11:43:27.714Z,66.81
2023-04-18T11:44:27.689Z,64.08
2023-04-18T11:45:27.704Z,65.43
2023-04-18T11:46:27.742Z,66.58
2023-04-18T11:47:27.682Z,64.86
2023-04-18T11:48:27.692Z,66.67
2023-04-18T11:49:27.690Z,66.58
2023-04-18T11:50:28.324Z,65.24
2023-04-18T11:51:27.643Z,64.83
2023-04-18T11:52:27.650Z,67.07
2023-04-18T11:53:27.633Z,65.11
2023-04-18T11:54:27.618Z,65.12
2023-04-18T11:55:27.616Z,66.24
2023-04-18T11:56:27.660Z,66.54
2023-04-18T11:57:27.586Z,65.33
2023-04-18T11:58:27.607Z,66.56
2023-04-18T11:59:27.569Z,65.39
2023-04-18T12:00:27.582Z,65.89
2023-04-18T12:01:27.562Z,65.09
2023-04-18T12:02:27.753Z,64.96
2023-04-18T12:03:27.664Z,65.98
2023-04-18T12:04:27.794Z,65.84
2023-04-18T12:05:27.660Z,67.58
2023-04-18T12:06:27.636Z,65.34
2023-04-18T12:07:27.516Z,65.63
2023-04-18T12:08:27.532Z,65.26
2023-04-18T12:09:27.590Z,65.20
2023-04-18T12:10:27.495Z,63.07
2023-04-18T12:11:27.483Z,64.98
2023-04-18T12:12:27.490Z,64.63
2023-04-18T12:13:27.470Z,63.97
2023-04-18T12:14:27.500Z,66.35
2023-04-18T12:15:27.442Z,65.15
2023-04-18T12:16:27.519Z,66.73
2023-04-18T12:17:27.495Z,63.65
2023-04-18T12:18:27.431Z,64.99
2023-04-18T12:19:27.436Z,65.67
2023-04-18T12:20:27.427Z,65.28
2023-04-18T12:21:27.409Z,65.27
2023-04-18T12:22:27.425Z,65.07
2023-04-18T12:23:27.379Z,65.39
2023-04-18T12:24:27.442Z,64.84
2023-04-18T12:25:27.828Z,65.16
2023-04-18T12:26:27.429Z,65.00
2023-04-18T12:27:27.350Z,64.94
2023-04-18T12:28:27.368Z,64.57
2023-04-18T12:29:27.365Z,66.19
2023-04-18T12:30:27.351Z,65.03
2023-04-18T12:31:27.339Z,62.94
2023-04-18T12:32:27.374Z,64.31
2023-04-18T12:33:27.319Z,64.93
2023-04-18T12:34:27.322Z,65.20
2023-04-18T12:35:27.303Z,65.26
2023-04-18T12:36:27.290Z,64.42
2023-04-18T12:37:27.274Z,65.54
2023-04-18T12:38:27.287Z,65.53
2023-04-18T12:39:27.403Z,66.22
2023-04-18T12:40:27.289Z,66.28
2023-04-18T12:41:27.278Z,67.25
2023-04-18T12:42:27.246Z,68.07
2023-04-18T12:43:27.225Z,66.32
2023-04-18T12:44:27.233Z,66.01
2023-04-18T12:45:27.224Z,66.13
2023-04-18T12:46:27.282Z,66.28
2023-04-18T12:47:27.290Z,64.49
2023-04-18T12:48:27.206Z,63.48
2023-04-18T12:49:27.181Z,65.02
2023-04-18T12:50:27.229Z,64.91
2023-04-18T12:51:27.179Z,64.94
2023-04-18T12:52:27.193Z,64.30